Time;durP1;ratioP1;P1;durP2;ratioP2;P2;SDS_P1;SDS_P2;PMS_P1;PMS_P2;Temp;Humidity;BMP_temperature;BMP_pressure;BME280_temperature;BME280_humidity;BME280_pressure;Samples;Min_cycle;Max_cycle;Signal;HPM_P1;HPM_P2
2021/08/10 00:01:04;;;;;;;4.47;3.20;;;16.20;99.90;;;;;;5056073;28;20160;-80
2021/08/10 00:03:29;;;;;;;3.67;2.47;;;16.10;99.90;;;;;;5039716;28;20415;-80
2021/08/10 00:05:55;;;;;;;3.53;2.70;;;16.20;99.90;;;;;;5055303;28;20161;-79
2021/08/10 00:08:21;;;;;;;4.70;2.80;;;16.20;99.90;;;;;;5056029;28;20358;-80
2021/08/10 00:10:49;;;;;;;4.17;2.83;;;16.20;99.90;;;;;;5023949;28;20176;-80
2021/08/10 00:13:17;;;;;;;3.83;3.07;;;16.20;99.90;;;;;;5060097;28;20466;-80
2021/08/10 00:15:43;;;;;;;3.13;2.83;;;16.30;99.90;;;;;;5060264;28;20407;-81
2021/08/10 00:18:09;;;;;;;4.00;2.80;;;16.30;99.90;;;;;;5031822;28;20423;-83
2021/08/10 00:20:35;;;;;;;5.80;2.53;;;16.20;99.90;;;;;;5048699;28;20161;-83
2021/08/10 00:23:01;;;;;;;3.63;2.87;;;16.30;99.90;;;;;;5047822;28;20172;-83
2021/08/10 00:25:27;;;;;;;3.87;3.43;;;16.20;99.90;;;;;;5048267;28;20489;-82
2021/08/10 00:27:52;;;;;;;2.97;2.43;;;16.30;99.90;;;;;;5047351;28;20514;-82
2021/08/10 00:30:19;;;;;;;3.33;3.03;;;16.30;99.90;;;;;;5048324;28;20449;-83
2021/08/10 00:32:44;;;;;;;3.50;3.20;;;16.30;99.90;;;;;;5047983;28;20164;-83
2021/08/10 00:35:10;;;;;;;2.70;2.50;;;16.10;99.90;;;;;;5047797;28;20457;-82
2021/08/10 00:37:36;;;;;;;5.37;3.07;;;16.20;99.90;;;;;;5054851;28;20318;-83
2021/08/10 00:40:01;;;;;;;3.43;2.97;;;16.10;99.90;;;;;;5068123;28;20387;-83
2021/08/10 00:42:27;;;;;;;3.13;2.90;;;16.00;99.90;;;;;;5066903;28;20593;-82
2021/08/10 00:44:52;;;;;;;3.33;3.13;;;16.00;99.90;;;;;;5067779;28;20191;-82
2021/08/10 00:47:18;;;;;;;3.97;3.57;;;15.80;99.90;;;;;;5067261;28;20160;-82
2021/08/10 00:49:43;;;;;;;3.53;2.70;;;15.80;99.90;;;;;;5067243;28;20168;-83
2021/08/10 00:52:09;;;;;;;5.63;2.53;;;15.80;99.90;;;;;;5067612;28;20164;-81
2021/08/10 00:54:35;;;;;;;3.77;3.40;;;15.70;99.90;;;;;;5067014;28;20170;-83
2021/08/10 00:57:00;;;;;;;5.30;3.47;;;15.90;99.90;;;;;;5067262;28;20164;-80
2021/08/10 00:59:26;;;;;;;2.90;2.70;;;15.80;99.90;;;;;;5066976;28;20160;-82
2021/08/10 01:01:51;;;;;;;5.83;3.20;;;15.60;99.90;;;;;;5066600;28;20175;-83
2021/08/10 01:04:17;;;;;;;4.57;3.33;;;15.60;99.90;;;;;;5066614;28;20175;-83
2021/08/10 01:07:07;;;;;;;6.10;3.60;;;15.60;99.90;;;;;;5067018;28;20183;-83
2021/08/10 01:09:45;;;;;;;3.30;3.00;;;15.60;99.90;;;;;;5066637;28;20241;-83
2021/08/10 01:12:17;;;;;;;4.17;3.23;;;15.60;99.90;;;;;;5066923;28;20466;-81
2021/08/10 01:14:54;;;;;;;7.90;4.00;;;15.50;99.90;;;;;;5066968;28;20387;-84
2021/08/10 01:17:24;;;;;;;5.93;3.00;;;15.40;99.90;;;;;;5066456;28;20399;-82
2021/08/10 01:20:04;;;;;;;3.20;2.90;;;15.60;99.90;;;;;;5065584;28;20409;-82
2021/08/10 01:22:30;;;;;;;3.40;2.87;;;15.50;99.90;;;;;;5066059;28;20405;-83
2021/08/10 01:25:29;;;;;;;4.27;3.50;;;15.60;99.90;;;;;;5066327;28;20924;-83
2021/08/10 01:28:07;;;;;;;2.40;2.20;;;15.50;99.90;;;;;;5066068;28;20544;-82
2021/08/10 01:30:44;;;;;;;3.23;2.93;;;15.60;99.90;;;;;;5067009;28;20421;-80
2021/08/10 01:33:10;;;;;;;4.43;3.40;;;15.60;99.90;;;;;;5076095;28;20391;-80
2021/08/10 01:35:36;;;;;;;3.53;3.20;;;15.60;99.90;;;;;;5073541;28;20401;-83
2021/08/10 01:38:05;;;;;;;3.23;3.03;;;15.60;99.90;;;;;;5050678;28;20239;-83
2021/08/10 01:40:31;;;;;;;8.20;3.53;;;15.60;99.90;;;;;;5048362;28;20196;-82
2021/08/10 01:43:02;;;;;;;5.40;3.77;;;15.60;99.90;;;;;;5046934;28;20403;-81
2021/08/10 01:45:28;;;;;;;4.33;3.70;;;15.60;99.90;;;;;;5045954;28;20437;-80
2021/08/10 01:47:55;;;;;;;4.60;3.50;;;15.50;99.90;;;;;;5046586;28;20451;-83
2021/08/10 01:50:23;;;;;;;3.70;3.13;;;15.60;99.90;;;;;;5047110;28;20165;-84
2021/08/10 01:52:49;;;;;;;4.00;3.50;;;15.60;99.90;;;;;;5049919;28;20403;-83
2021/08/10 01:55:17;;;;;;;4.93;4.43;;;15.80;99.90;;;;;;5050436;28;20404;-83
2021/08/10 01:57:45;;;;;;;6.20;3.70;;;15.90;99.90;;;;;;5047800;28;20168;-83
2021/08/10 02:00:11;;;;;;;8.70;3.80;;;15.90;99.90;;;;;;5047287;28;20403;-83
2021/08/10 02:02:36;;;;;;;3.20;2.90;;;16.00;99.90;;;;;;5047575;28;20399;-83
2021/08/10 02:05:04;;;;;;;6.73;3.63;;;16.10;99.90;;;;;;5046406;28;20494;-82
2021/08/10 02:07:30;;;;;;;5.60;3.93;;;16.10;99.90;;;;;;5029366;28;20168;-83
2021/08/10 02:09:58;;;;;;;5.67;3.67;;;16.30;99.90;;;;;;5047400;28;20473;-83
2021/08/10 02:12:24;;;;;;;3.10;2.80;;;16.40;99.90;;;;;;5046587;28;20781;-82
2021/08/10 02:14:50;;;;;;;4.53;3.20;;;16.30;99.90;;;;;;5046353;28;20419;-83
2021/08/10 02:17:16;;;;;;;4.10;3.10;;;16.20;99.90;;;;;;5051621;28;20218;-81
2021/08/10 02:19:43;;;;;;;3.70;3.40;;;16.10;99.90;;;;;;5054582;28;20402;-82
2021/08/10 02:22:14;;;;;;;4.47;3.00;;;16.00;99.90;;;;;;5055408;28;20410;-80
2021/08/10 02:24:51;;;;;;;5.33;3.23;;;15.90;99.90;;;;;;5055617;28;20387;-82
2021/08/10 02:27:27;;;;;;;3.37;3.03;;;15.70;99.90;;;;;;5054029;28;20400;-80
2021/08/10 02:29:53;;;;;;;6.13;3.87;;;15.60;99.90;;;;;;5053974;28;20422;-80
2021/08/10 02:32:23;;;;;;;3.40;3.10;;;15.50;99.90;;;;;;5053482;28;20438;-80
2021/08/10 02:34:49;;;;;;;3.40;3.10;;;15.60;99.90;;;;;;5053382;28;20509;-80
2021/08/10 02:37:16;;;;;;;4.10;3.40;;;15.50;99.90;;;;;;5054015;28;20521;-80
2021/08/10 02:39:43;;;;;;;5.80;3.20;;;15.40;99.90;;;;;;5054865;28;20430;-80
2021/08/10 02:42:10;;;;;;;6.70;4.27;;;15.40;99.90;;;;;;5053918;28;20392;-80
2021/08/10 02:44:39;;;;;;;4.70;2.63;;;15.40;99.90;;;;;;5054241;28;20404;-80
2021/08/10 02:47:04;;;;;;;4.37;3.00;;;15.40;99.90;;;;;;5053484;28;20388;-80
2021/08/10 02:49:30;;;;;;;7.80;4.30;;;15.40;99.90;;;;;;5053643;28;20592;-81
2021/08/10 02:51:55;;;;;;;3.00;2.60;;;15.30;99.90;;;;;;5054824;28;20161;-80
2021/08/10 02:54:21;;;;;;;6.30;3.00;;;15.30;99.90;;;;;;5054244;28;20165;-80
2021/08/10 02:56:56;;;;;;;3.27;2.83;;;15.20;99.90;;;;;;5054394;28;20161;-80
2021/08/10 02:59:29;;;;;;;3.83;3.53;;;15.20;99.90;;;;;;5053886;28;20240;-80
2021/08/10 03:02:02;;;;;;;4.97;4.43;;;15.00;99.90;;;;;;5053312;28;20400;-80
2021/08/10 03:04:30;;;;;;;5.70;3.60;;;14.90;99.90;;;;;;5053180;28;20423;-80
2021/08/10 03:06:56;;;;;;;3.93;3.63;;;14.90;99.90;;;;;;5052701;28;20400;-80
2021/08/10 03:09:22;;;;;;;5.90;3.97;;;14.90;99.90;;;;;;5053271;28;20520;-80
2021/08/10 03:11:50;;;;;;;3.67;2.93;;;15.10;99.90;;;;;;5049079;28;20400;-82
2021/08/10 03:14:15;;;;;;;5.37;4.40;;;15.00;99.90;;;;;;5047979;28;20388;-83
2021/08/10 03:16:42;;;;;;;7.70;3.83;;;15.00;99.90;;;;;;5046767;28;20402;-83
2021/08/10 03:19:10;;;;;;;6.20;3.80;;;15.10;99.90;;;;;;5047156;28;20176;-83
2021/08/10 03:21:37;;;;;;;8.73;3.53;;;14.90;99.90;;;;;;5047328;28;20395;-83
2021/08/10 03:24:06;;;;;;;4.10;3.80;;;14.90;99.90;;;;;;5046223;28;20741;-83
2021/08/10 03:26:34;;;;;;;7.07;3.50;;;15.00;99.90;;;;;;5046243;28;20402;-83
2021/08/10 03:29:00;;;;;;;3.33;3.00;;;15.00;99.90;;;;;;5047766;28;20454;-83
2021/08/10 03:31:26;;;;;;;5.10;3.53;;;14.90;99.90;;;;;;5046678;28;20391;-83
2021/08/10 03:33:52;;;;;;;4.20;3.70;;;15.10;99.90;;;;;;5052063;28;20449;-80
2021/08/10 03:36:20;;;;;;;5.87;4.80;;;15.10;99.90;;;;;;5052468;28;20442;-80
2021/08/10 03:38:46;;;;;;;3.80;3.50;;;15.10;99.90;;;;;;5049007;28;20423;-83
2021/08/10 03:41:12;;;;;;;4.50;3.67;;;15.10;99.90;;;;;;5045812;28;20893;-83
2021/08/10 03:43:39;;;;;;;4.17;3.80;;;15.10;99.90;;;;;;5045727;28;20435;-83
2021/08/10 03:46:07;;;;;;;3.40;3.10;;;15.20;99.90;;;;;;5045191;28;20881;-83
2021/08/10 03:48:37;;;;;;;3.60;3.30;;;15.10;99.90;;;;;;5045992;28;20956;-83
2021/08/10 03:51:03;;;;;;;6.00;4.00;;;15.10;99.90;;;;;;5046997;28;20463;-83
2021/08/10 03:53:31;;;;;;;5.00;3.77;;;15.00;99.90;;;;;;5046361;28;20403;-83
2021/08/10 03:55:58;;;;;;;5.20;3.53;;;15.00;99.90;;;;;;5046178;28;20392;-82
2021/08/10 03:58:27;;;;;;;4.40;2.90;;;15.00;99.90;;;;;;5013629;28;20867;-83
2021/08/10 04:00:55;;;;;;;7.00;3.77;;;15.00;99.90;;;;;;5046698;28;20418;-83
2021/08/10 04:03:22;;;;;;;5.20;4.70;;;15.10;99.90;;;;;;5046372;28;20400;-83
2021/08/10 04:05:49;;;;;;;4.10;3.70;;;15.00;99.90;;;;;;5045809;28;20472;-83
2021/08/10 04:08:16;;;;;;;5.73;4.10;;;15.10;99.90;;;;;;5045882;28;20536;-83
2021/08/10 04:10:45;;;;;;;5.20;4.70;;;15.00;99.90;;;;;;5045584;28;20428;-83
2021/08/10 04:13:11;;;;;;;3.40;3.10;;;15.10;99.90;;;;;;5045528;28;20960;-83
2021/08/10 04:15:42;;;;;;;4.40;3.40;;;15.00;99.90;;;;;;5027426;28;20391;-83
2021/08/10 04:18:11;;;;;;;3.77;3.47;;;14.90;99.90;;;;;;5045411;28;20396;-83
2021/08/10 04:20:37;;;;;;;3.73;3.00;;;14.90;99.90;;;;;;5045133;28;20391;-83
2021/08/10 04:23:03;;;;;;;8.63;4.60;;;14.80;99.90;;;;;;5027478;28;20414;-83
2021/08/10 04:25:29;;;;;;;3.80;3.50;;;15.00;99.90;;;;;;5045067;28;20594;-83
2021/08/10 04:27:54;;;;;;;4.80;3.90;;;15.10;99.90;;;;;;5044750;28;20447;-83
2021/08/10 04:30:20;;;;;;;6.03;3.77;;;15.20;99.90;;;;;;5044787;28;20161;-82
2021/08/10 04:32:45;;;;;;;5.13;3.80;;;15.20;99.90;;;;;;5045686;28;20161;-83
2021/08/10 04:35:14;;;;;;;8.50;5.40;;;15.30;99.90;;;;;;5045109;28;20180;-83
2021/08/10 04:37:39;;;;;;;4.23;3.87;;;15.40;99.90;;;;;;5044474;28;20455;-83
2021/08/10 04:40:06;;;;;;;4.50;3.53;;;15.30;99.90;;;;;;5044965;28;20177;-83
2021/08/10 04:42:34;;;;;;;5.73;4.00;;;15.40;99.90;;;;;;5044446;28;20181;-83
2021/08/10 04:45:00;;;;;;;4.80;3.83;;;15.40;99.90;;;;;;5045142;28;20403;-83
2021/08/10 04:47:25;;;;;;;3.67;3.00;;;15.40;99.90;;;;;;5043929;28;20762;-83
2021/08/10 04:49:51;;;;;;;3.47;2.97;;;15.30;99.90;;;;;;5027869;28;20410;-82
2021/08/10 04:52:16;;;;;;;5.50;4.07;;;15.10;99.90;;;;;;5046359;28;20169;-83
2021/08/10 04:54:42;;;;;;;4.20;3.00;;;15.10;99.90;;;;;;5045179;28;20191;-82
2021/08/10 04:57:07;;;;;;;8.13;3.70;;;15.10;99.90;;;;;;5045695;28;20172;-82
2021/08/10 04:59:33;;;;;;;4.70;4.30;;;15.10;99.90;;;;;;5049243;28;20176;-83
2021/08/10 05:01:58;;;;;;;4.13;3.77;;;15.10;99.90;;;;;;5031841;28;20161;-83
2021/08/10 05:04:24;;;;;;;7.07;3.30;;;15.30;99.90;;;;;;5048663;28;20207;-83
2021/08/10 05:06:50;;;;;;;4.87;4.40;;;15.40;99.90;;;;;;5049341;28;20172;-83
2021/08/10 05:09:16;;;;;;;4.40;3.37;;;15.20;99.90;;;;;;5048975;28;20212;-83
2021/08/10 05:11:41;;;;;;;3.50;3.20;;;15.20;99.90;;;;;;5048841;28;20407;-83
2021/08/10 05:14:07;;;;;;;6.50;4.40;;;15.30;99.90;;;;;;5049305;28;20161;-83
2021/08/10 05:16:32;;;;;;;9.60;3.93;;;15.30;99.90;;;;;;5048506;28;20507;-82
2021/08/10 05:18:58;;;;;;;4.90;3.90;;;15.30;99.90;;;;;;5048601;28;20161;-83
2021/08/10 05:21:23;;;;;;;5.50;3.63;;;15.40;99.90;;;;;;5030815;28;20168;-83
2021/08/10 05:23:49;;;;;;;5.87;3.87;;;15.40;99.90;;;;;;5048156;28;20609;-83
2021/08/10 05:26:14;;;;;;;4.10;3.63;;;15.40;99.90;;;;;;5048083;28;20175;-83
2021/08/10 05:28:40;;;;;;;5.10;4.10;;;15.50;99.90;;;;;;5047955;28;20196;-83
2021/08/10 05:31:05;;;;;;;4.23;3.47;;;15.50;99.90;;;;;;5047989;28;20168;-83
2021/08/10 05:33:31;;;;;;;4.80;3.90;;;15.70;99.90;;;;;;5049235;28;20169;-82
2021/08/10 05:35:57;;;;;;;4.87;4.40;;;15.90;99.90;;;;;;5030776;28;20196;-82
2021/08/10 05:38:22;;;;;;;6.90;5.20;;;16.00;99.90;;;;;;5014858;28;20203;-83
2021/08/10 05:40:48;;;;;;;6.00;3.90;;;16.20;99.90;;;;;;5047977;28;20486;-82
2021/08/10 05:43:13;;;;;;;5.87;3.57;;;16.40;99.90;;;;;;5045474;28;20615;-83
2021/08/10 05:45:39;;;;;;;4.17;3.77;;;16.40;99.90;;;;;;5029346;28;20161;-83
2021/08/10 05:48:05;;;;;;;5.40;3.67;;;16.30;99.90;;;;;;5047220;28;20185;-83
2021/08/10 05:50:30;;;;;;;6.10;3.63;;;16.40;99.90;;;;;;5046836;28;20171;-83
2021/08/10 05:52:56;;;;;;;3.80;3.50;;;16.50;99.90;;;;;;5046825;28;20400;-81
2021/08/10 05:55:21;;;;;;;4.20;3.13;;;16.10;99.90;;;;;;5046764;28;20165;-82
2021/08/10 05:57:47;;;;;;;4.57;4.07;;;16.30;99.90;;;;;;5047160;28;20211;-83
2021/08/10 06:00:13;;;;;;;5.87;3.97;;;16.40;99.90;;;;;;5047142;28;20175;-81
2021/08/10 06:02:39;;;;;;;6.43;3.90;;;16.30;99.90;;;;;;5045546;28;20168;-81
2021/08/10 06:05:05;;;;;;;4.53;3.47;;;16.10;99.90;;;;;;5046167;28;20400;-83
2021/08/10 06:07:31;;;;;;;3.00;2.80;;;16.30;99.90;;;;;;4996237;28;20161;-83
2021/08/10 06:09:56;;;;;;;3.60;3.13;;;16.20;99.90;;;;;;5046208;28;20458;-82
2021/08/10 06:12:22;;;;;;;4.60;4.10;;;16.20;99.90;;;;;;5044858;28;20244;-82
2021/08/10 06:14:47;;;;;;;3.33;3.03;;;16.40;99.90;;;;;;5025018;28;20172;-81
2021/08/10 06:17:13;;;;;;;4.90;4.40;;;16.50;99.90;;;;;;5009168;28;20172;-82
2021/08/10 06:19:38;;;;;;;4.73;3.60;;;16.40;99.90;;;;;;5009715;28;20260;-82
2021/08/10 06:22:04;;;;;;;7.47;3.40;;;16.50;99.90;;;;;;5028748;28;20157;-80
2021/08/10 06:24:31;;;;;;;3.80;3.30;;;16.60;99.90;;;;;;5017381;28;20228;-83
2021/08/10 06:26:57;;;;;;;5.50;3.10;;;16.70;99.90;;;;;;5036044;28;20177;-83
2021/08/10 06:29:22;;;;;;;6.53;3.57;;;16.80;99.90;;;;;;5017389;28;20889;-82
2021/08/10 06:31:48;;;;;;;5.27;4.37;;;17.10;99.90;;;;;;5018129;28;20504;-82
2021/08/10 06:34:13;;;;;;;3.03;2.83;;;17.00;99.90;;;;;;5022716;28;20259;-82
2021/08/10 06:36:42;;;;;;;4.70;3.07;;;17.10;99.90;;;;;;5031771;28;20660;-82
2021/08/10 06:39:07;;;;;;;5.90;4.47;;;16.90;99.90;;;;;;5019527;28;20545;-82
2021/08/10 06:41:33;;;;;;;4.63;3.27;;;17.10;99.90;;;;;;5037121;28;20395;-82
2021/08/10 06:43:58;;;;;;;5.17;3.70;;;17.10;99.90;;;;;;5037449;28;20168;-82
2021/08/10 06:46:26;;;;;;;3.30;3.10;;;17.40;99.90;;;;;;5019235;28;20259;-82
2021/08/10 06:48:52;;;;;;;5.07;4.23;;;17.60;99.90;;;;;;5002988;28;20157;-82
2021/08/10 06:51:17;;;;;;;3.70;3.37;;;17.50;99.90;;;;;;5036931;28;20402;-82
2021/08/10 06:53:43;;;;;;;4.23;3.87;;;17.40;99.90;;;;;;5037118;28;20399;-82
2021/08/10 06:56:08;;;;;;;6.10;3.50;;;17.40;99.90;;;;;;5037051;28;20287;-82
2021/08/10 06:58:34;;;;;;;3.87;3.57;;;17.40;99.90;;;;;;5036915;28;20258;-82
2021/08/10 07:00:59;;;;;;;4.43;3.33;;;17.40;99.90;;;;;;5029833;28;20249;-82
2021/08/10 07:03:25;;;;;;;5.33;3.40;;;17.70;99.90;;;;;;5017002;28;20517;-82
2021/08/10 07:05:50;;;;;;;7.70;3.37;;;17.60;99.90;;;;;;4998922;28;20281;-82
2021/08/10 07:08:16;;;;;;;5.20;3.23;;;17.70;99.90;;;;;;5023121;28;20254;-82
2021/08/10 07:10:41;;;;;;;4.93;2.93;;;17.80;99.90;;;;;;5035985;28;20165;-82
2021/08/10 07:13:07;;;;;;;9.00;3.80;;;18.10;99.90;;;;;;5036612;28;20195;-82
2021/08/10 07:15:33;;;;;;;4.17;3.77;;;18.00;99.90;;;;;;5035758;28;20322;-82
2021/08/10 07:18:00;;;;;;;4.77;3.27;;;18.00;99.90;;;;;;5036507;28;20188;-81
2021/08/10 07:20:26;;;;;;;3.20;3.00;;;18.20;99.90;;;;;;5033671;28;20161;-82
2021/08/10 07:22:51;;;;;;;3.47;3.17;;;18.60;99.90;;;;;;5021483;28;20495;-82
2021/08/10 07:25:19;;;;;;;4.60;2.93;;;18.40;99.90;;;;;;5006945;28;20220;-82
2021/08/10 07:27:44;;;;;;;7.33;4.27;;;18.40;99.90;;;;;;5036202;28;20164;-82
2021/08/10 07:30:10;;;;;;;6.63;3.30;;;18.60;99.90;;;;;;5017918;28;20403;-82
2021/08/10 07:32:36;;;;;;;8.03;3.40;;;18.80;99.90;;;;;;5020275;28;20618;-82
2021/08/10 07:35:02;;;;;;;4.20;3.70;;;18.80;99.90;;;;;;5024594;28;20416;-81
2021/08/10 07:37:27;;;;;;;4.70;3.50;;;18.60;99.90;;;;;;5022614;28;20231;-83
2021/08/10 07:39:54;;;;;;;3.13;2.93;;;18.90;99.90;;;;;;5017219;28;20248;-82
2021/08/10 07:42:20;;;;;;;10.70;3.73;;;19.00;99.90;;;;;;5035910;28;20407;-82
2021/08/10 07:44:45;;;;;;;5.30;3.20;;;19.10;99.90;;;;;;5036212;28;20486;-82
2021/08/10 07:47:11;;;;;;;3.27;3.00;;;19.00;99.90;;;;;;5020486;28;20664;-83
2021/08/10 07:49:37;;;;;;;6.40;3.20;;;19.00;99.90;;;;;;5021630;28;20584;-81
2021/08/10 07:52:03;;;;;;;3.23;2.97;;;19.20;99.90;;;;;;5019218;28;20173;-82
2021/08/10 07:54:29;;;;;;;3.70;2.60;;;19.20;99.90;;;;;;5030939;28;20461;-81
2021/08/10 07:56:54;;;;;;;4.00;3.53;;;19.40;99.90;;;;;;5018654;28;20424;-82
2021/08/10 07:59:20;;;;;;;3.00;2.80;;;19.50;99.90;;;;;;5016251;28;20642;-81
2021/08/10 08:01:45;;;;;;;5.10;3.60;;;19.70;99.90;;;;;;5006194;28;20276;-82
2021/08/10 08:04:11;;;;;;;3.07;2.87;;;19.70;99.90;;;;;;5035528;28;20179;-81
2021/08/10 08:06:36;;;;;;;7.30;3.40;;;19.90;99.90;;;;;;5036013;28;20167;-82
2021/08/10 08:09:02;;;;;;;7.83;3.70;;;19.70;99.90;;;;;;5012478;28;20197;-82
2021/08/10 08:11:28;;;;;;;4.17;3.37;;;19.90;99.90;;;;;;5035775;28;20200;-82
2021/08/10 08:13:53;;;;;;;3.00;2.63;;;20.00;99.90;;;;;;5031606;28;20184;-82
2021/08/10 08:16:22;;;;;;;3.87;3.33;;;20.30;99.90;;;;;;5023942;28;20264;-82
2021/08/10 08:18:47;;;;;;;4.07;3.03;;;20.10;99.90;;;;;;5019853;28;20197;-81
2021/08/10 08:21:13;;;;;;;3.70;3.40;;;20.30;99.90;;;;;;5015724;28;20415;-83
2021/08/10 08:23:38;;;;;;;3.30;2.97;;;20.20;99.90;;;;;;5015618;28;20169;-82
2021/08/10 08:26:06;;;;;;;4.80;3.40;;;20.30;99.90;;;;;;5029831;28;20165;-83
2021/08/10 08:28:35;;;;;;;2.63;2.43;;;20.40;99.90;;;;;;5017102;28;20263;-81
2021/08/10 08:31:02;;;;;;;3.83;3.23;;;20.90;99.90;;;;;;5008987;28;20840;-82
2021/08/10 08:33:28;;;;;;;6.30;3.10;;;21.00;99.90;;;;;;5033202;28;20767;-82
2021/08/10 08:35:53;;;;;;;3.10;2.80;;;21.10;99.90;;;;;;5019930;28;20770;-82
2021/08/10 08:38:20;;;;;;;3.60;3.30;;;21.00;99.90;;;;;;4988596;28;20439;-83
2021/08/10 08:40:47;;;;;;;6.50;3.63;;;21.30;99.90;;;;;;5029254;28;20173;-82
2021/08/10 08:43:16;;;;;;;3.73;3.20;;;21.40;99.90;;;;;;5009513;28;20522;-83
2021/08/10 08:45:41;;;;;;;3.63;3.33;;;21.20;99.90;;;;;;5039000;28;20896;-82
2021/08/10 08:48:11;;;;;;;4.60;3.10;;;21.30;99.90;;;;;;5040913;28;20407;-82
2021/08/10 08:50:37;;;;;;;3.37;3.03;;;21.40;99.90;;;;;;5040422;28;20525;-83
2021/08/10 08:53:05;;;;;;;3.80;3.40;;;21.40;99.90;;;;;;5043890;28;20450;-83
2021/08/10 08:55:31;;;;;;;2.97;2.65;;;21.70;99.90;;;;;;5043284;28;20401;-83
2021/08/10 08:57:57;;;;;;;3.03;2.83;;;21.90;99.90;;;;;;5023982;28;20279;-82
2021/08/10 09:00:22;;;;;;;2.60;2.40;;;22.10;99.90;;;;;;5046279;28;20430;-80
2021/08/10 09:02:48;;;;;;;3.40;3.10;;;22.30;99.90;;;;;;5032656;28;20192;-82
2021/08/10 09:05:14;;;;;;;3.20;2.83;;;22.30;99.90;;;;;;5014112;28;20157;-82
2021/08/10 09:07:41;;;;;;;5.50;2.80;;;22.30;99.90;;;;;;5029832;28;20227;-83
2021/08/10 09:10:13;;;;;;;3.20;2.90;;;22.50;99.90;;;;;;5020783;28;20451;-83
2021/08/10 09:12:46;;;;;;;5.53;2.90;;;22.80;99.90;;;;;;5003518;28;20436;-83
2021/08/10 09:15:31;;;;;;;3.60;3.00;;;23.00;99.90;;;;;;5026493;28;20422;-82
2021/08/10 09:18:08;;;;;;;3.40;3.00;;;23.00;99.90;;;;;;5040968;28;20486;-82
2021/08/10 09:20:34;;;;;;;4.13;2.93;;;23.10;99.90;;;;;;5041916;28;20843;-83
2021/08/10 09:23:00;;;;;;;4.70;4.20;;;22.90;99.90;;;;;;5039926;28;20436;-83
2021/08/10 09:25:26;;;;;;;3.37;3.07;;;22.80;99.90;;;;;;5020360;28;20224;-83
2021/08/10 09:28:04;;;;;;;5.30;2.70;;;22.80;99.90;;;;;;5038881;28;20423;-82
2021/08/10 09:30:30;;;;;;;2.77;2.57;;;22.70;99.90;;;;;;5032962;28;20540;-83
2021/08/10 09:32:58;;;;;;;5.27;3.20;;;22.70;99.90;;;;;;5038881;28;20430;-83
2021/08/10 09:35:29;;;;;;;10.37;2.80;;;22.80;99.90;;;;;;5040128;28;20177;-82
2021/08/10 09:38:06;;;;;;;3.37;2.67;;;22.80;99.90;;;;;;5022962;28;20479;-82
2021/08/10 09:40:44;;;;;;;3.43;2.80;;;22.80;99.90;;;;;;5010513;28;20502;-83
2021/08/10 09:43:27;;;;;;;4.83;3.77;;;22.90;99.90;;;;;;5022824;28;20416;-82
2021/08/10 09:46:08;;;;;;;8.43;3.10;;;23.00;99.90;;;;;;5018919;28;20443;-83
2021/08/10 09:48:34;;;;;;;9.80;3.33;;;23.00;99.90;;;;;;5034870;28;20419;-83
2021/08/10 09:51:16;;;;;;;3.57;2.73;;;23.10;99.90;;;;;;5020134;28;20491;-83
2021/08/10 09:53:43;;;;;;;3.37;2.63;;;23.30;99.90;;;;;;5034300;28;20435;-83
2021/08/10 09:56:09;;;;;;;3.37;3.07;;;23.50;99.90;;;;;;5027744;28;20813;-83
2021/08/10 09:58:56;;;;;;;3.27;2.97;;;23.70;99.90;;;;;;5038378;28;20451;-82
2021/08/10 10:01:30;;;;;;;3.57;2.67;;;24.00;99.90;;;;;;5032137;28;20415;-82
2021/08/10 10:04:08;;;;;;;4.43;2.60;;;24.00;99.90;;;;;;5031678;28;20422;-82
2021/08/10 10:06:34;;;;;;;2.80;2.60;;;23.90;99.90;;;;;;5039003;28;20405;-82
2021/08/10 10:09:00;;;;;;;2.77;2.57;;;23.80;99.90;;;;;;5034791;28;20932;-83
2021/08/10 10:11:26;;;;;;;2.40;2.20;;;23.60;99.90;;;;;;5027928;28;20184;-83
2021/08/10 10:13:52;;;;;;;6.57;2.70;;;23.90;99.90;;;;;;5038313;28;20418;-83
2021/08/10 10:16:17;;;;;;;3.33;3.03;;;23.40;99.90;;;;;;5021265;28;20408;-83
2021/08/10 10:18:44;;;;;;;2.60;2.40;;;23.70;99.90;;;;;;5039357;28;20442;-82
2021/08/10 10:21:11;;;;;;;5.37;2.17;;;23.70;99.90;;;;;;5017967;28;20342;-82
2021/08/10 10:23:37;;;;;;;4.90;2.70;;;23.70;99.90;;;;;;5028853;28;20416;-83
2021/08/10 10:26:05;;;;;;;3.30;2.37;;;23.60;99.90;;;;;;5009131;28;20454;-83
2021/08/10 10:28:32;;;;;;;5.90;2.40;;;23.60;99.90;;;;;;5002713;28;20420;-83
2021/08/10 10:30:59;;;;;;;2.20;2.10;;;23.70;99.90;;;;;;5021896;28;20416;-83
2021/08/10 10:33:26;;;;;;;3.40;2.00;;;23.70;99.90;;;;;;5024841;28;20461;-82
2021/08/10 10:35:53;;;;;;;2.70;2.13;;;23.80;99.90;;;;;;5029509;28;20428;-80
2021/08/10 10:38:19;;;;;;;2.90;2.20;;;23.90;99.90;;;;;;5018613;28;20463;-82
2021/08/10 10:40:45;;;;;;;2.83;2.10;;;23.90;99.90;;;;;;5037600;28;20509;-83
2021/08/10 10:43:11;;;;;;;4.57;2.20;;;24.10;99.90;;;;;;5040325;28;20251;-82
2021/08/10 10:45:39;;;;;;;3.30;2.20;;;24.20;99.90;;;;;;5033433;28;20424;-82
2021/08/10 10:48:34;;;;;;;2.80;2.43;;;24.60;99.90;;;;;;4976984;28;20206;-82
2021/08/10 10:51:03;;;;;;;3.03;2.70;;;24.80;99.90;;;;;;4963253;28;20399;-82
2021/08/10 10:53:29;;;;;;;4.10;2.60;;;24.90;99.90;;;;;;4976305;28;20426;-82
2021/08/10 10:55:55;;;;;;;2.87;2.10;;;25.00;99.90;;;;;;4975175;28;20402;-82
2021/08/10 10:58:26;;;;;;;3.63;2.33;;;25.20;99.90;;;;;;4971951;28;20457;-82
2021/08/10 11:01:13;;;;;;;2.17;1.97;;;25.20;99.90;;;;;;4974210;28;20166;-82
2021/08/10 11:03:41;;;;;;;5.33;2.67;;;25.00;99.90;;;;;;4975600;28;20593;-83
2021/08/10 11:06:28;;;;;;;5.83;2.30;;;24.90;99.90;;;;;;4958508;28;20552;-83
2021/08/10 11:08:53;;;;;;;3.93;2.57;;;25.20;99.90;;;;;;4976054;28;20921;-82
2021/08/10 11:11:46;;;;;;;2.63;2.40;;;25.50;99.90;;;;;;4976045;28;20593;-83
2021/08/10 11:14:36;;;;;;;5.57;2.43;;;25.30;99.90;;;;;;4977337;28;20186;-83
2021/08/10 11:17:11;;;;;;;5.37;3.07;;;25.30;99.90;;;;;;4962076;28;20943;-83
2021/08/10 11:19:42;;;;;;;2.80;2.60;;;25.60;99.90;;;;;;4993299;28;20457;-83
2021/08/10 11:22:26;;;;;;;2.70;1.90;;;25.90;99.90;;;;;;5036757;28;20394;-82
2021/08/10 11:24:55;;;;;;;4.70;2.00;;;25.90;99.90;;;;;;5037397;28;20406;-83
2021/08/10 11:27:29;;;;;;;2.70;1.87;;;25.90;99.90;;;;;;5017536;28;20465;-83
2021/08/10 11:29:55;;;;;;;2.40;2.20;;;26.20;99.90;;;;;;5031879;28;20435;-83
2021/08/10 11:32:50;;;;;;;2.97;2.63;;;26.10;99.90;;;;;;5018381;28;20407;-83
2021/08/10 11:35:39;;;;;;;2.93;2.20;;;26.60;99.90;;;;;;5018541;28;20161;-83
2021/08/10 11:38:18;;;;;;;3.30;2.60;;;26.70;99.90;;;;;;5033235;28;20473;-83
2021/08/10 11:40:58;;;;;;;5.63;2.73;;;27.40;99.90;;;;;;5037534;28;20390;-83
2021/08/10 11:43:34;;;;;;;2.43;2.23;;;27.70;99.90;;;;;;5037705;28;20406;-83
2021/08/10 11:46:01;;;;;;;2.40;2.20;;;28.40;99.90;;;;;;5038196;28;20476;-83
2021/08/10 11:48:48;;;;;;;2.57;2.30;;;28.70;99.90;;;;;;5035024;28;20522;-82
2021/08/10 11:51:17;;;;;;;4.25;2.00;;;29.20;99.90;;;;;;5038803;28;20434;-83
2021/08/10 11:53:45;;;;;;;4.40;2.80;;;29.30;99.90;;;;;;5037299;28;20214;-83
2021/08/10 11:56:29;;;;;;;3.60;2.50;;;28.70;99.90;;;;;;5038074;28;20209;-82
2021/08/10 11:58:56;;;;;;;2.60;2.20;;;27.90;99.90;;;;;;5039566;28;20200;-83
2021/08/10 12:01:22;;;;;;;3.55;2.58;;;28.80;99.90;;;;;;5004052;28;20617;-82
2021/08/10 12:03:48;;;;;;;5.50;2.75;;;29.00;99.30;;;;;;5038793;28;20254;-83
2021/08/10 12:06:14;;;;;;;2.70;2.50;;;28.70;99.90;;;;;;5038368;28;20263;-83
2021/08/10 12:08:41;;;;;;;2.40;2.20;;;29.70;99.90;;;;;;5041388;28;20698;-83
2021/08/10 12:11:06;;;;;;;2.95;2.15;;;30.30;99.50;;;;;;5043398;28;20172;-82
2021/08/10 12:13:32;;;;;;;4.28;2.45;;;30.40;97.70;;;;;;5042622;28;20647;-83
2021/08/10 12:15:58;;;;;;;4.43;2.65;;;30.60;95.90;;;;;;5043218;28;20160;-83
2021/08/10 12:18:26;;;;;;;2.75;2.15;;;30.80;95.50;;;;;;5042304;28;20195;-83
2021/08/10 12:20:56;;;;;;;3.55;2.88;;;30.60;94.60;;;;;;5042328;28;20180;-83
2021/08/10 12:23:23;;;;;;;4.60;2.50;;;30.50;93.90;;;;;;5041056;28;20651;-83
2021/08/10 12:25:49;;;;;;;3.25;2.25;;;29.90;94.80;;;;;;5026033;28;20152;-83
2021/08/10 12:28:14;;;;;;;3.53;2.55;;;30.20;93.50;;;;;;5042259;28;20175;-82
2021/08/10 12:30:42;;;;;;;2.83;2.53;;;29.40;94.70;;;;;;5041002;28;20228;-83
2021/08/10 12:33:15;;;;;;;2.53;2.33;;;28.90;94.40;;;;;;5041836;28;20175;-83
2021/08/10 12:36:07;;;;;;;2.40;2.17;;;27.80;94.00;;;;;;5042621;28;20164;-83
2021/08/10 12:38:35;;;;;;;5.80;3.60;;;28.00;96.60;;;;;;5043791;28;20192;-82
2021/08/10 12:41:01;;;;;;;3.90;2.80;;;28.10;95.80;;;;;;5047919;28;20238;-83
2021/08/10 12:43:27;;;;;;;4.77;2.80;;;27.70;96.70;;;;;;5048864;28;20409;-82
2021/08/10 12:45:53;;;;;;;3.50;3.20;;;27.40;97.20;;;;;;5066544;28;20198;-82
2021/08/10 12:48:24;;;;;;;3.03;2.63;;;27.10;98.60;;;;;;5066814;28;20457;-82
2021/08/10 12:50:55;;;;;;;6.90;2.93;;;27.20;99.30;;;;;;5065802;28;20471;-83
2021/08/10 12:53:29;;;;;;;3.23;3.00;;;26.90;99.30;;;;;;5070673;28;20402;-82